Presidio of Monterey, California
Current Conditions -  °F | °C
As of 7:54 PM on Wednesday 28 Jan 2015 (Local Time) from KMRY Reporting Station
Clear Clear  
Wind Chill: 53°   Ceiling: Unl
Heat Index: 53°   Visibility: 10mi
Dew Point: 46°   Wind: 3mph
Humidity: 77%   Direction: 80°E
Pressure: 30.16"   Gusts: NA
Location:  36.5816°N, 121.843°W
Report Text: KMRY 290354Z 08003KT 10SM CLR 12/08 A3016 RMK AO2 SLP228 T01170078
Loading
Personal Weather Stations






























Interactive Weather Map New forecast layout! Learn more

10-Day Weather Forecast

Advertisements
Track Severe Weather on mobile